createdAt,value
2023-05-10T00:02:08.563Z,8.32
2023-05-10T00:05:50.416Z,8.18
2023-05-10T00:09:32.299Z,8.10
2023-05-10T00:13:14.335Z,7.97
2023-05-10T00:16:56.224Z,8.65
2023-05-10T00:20:38.113Z,8.57
2023-05-10T00:24:20.046Z,9.60
2023-05-10T00:28:02.796Z,11.25
2023-05-10T00:31:44.668Z,11.77
2023-05-10T00:35:27.069Z,11.30
2023-05-10T00:39:08.967Z,10.40
2023-05-10T00:42:50.846Z,9.95
2023-05-10T00:46:33.078Z,9.95
2023-05-10T00:50:15.963Z,8.45
2023-05-10T00:53:58.364Z,7.68
2023-05-10T00:57:40.669Z,6.68
2023-05-10T01:01:22.902Z,5.97
2023-05-10T01:05:05.251Z,4.88
2023-05-10T01:08:47.511Z,4.00
2023-05-10T01:12:29.486Z,3.63
2023-05-10T01:16:11.523Z,4.18
2023-05-10T01:19:53.521Z,4.20
2023-05-10T01:24:01.394Z,3.88
2023-05-10T01:27:45.974Z,3.88
2023-05-10T01:31:58.674Z,4.13
2023-05-10T01:35:55.511Z,4.45
2023-05-10T01:39:52.352Z,4.85
2023-05-10T01:43:44.035Z,3.13
2023-05-10T01:47:45.649Z,4.45
2023-05-10T01:51:38.557Z,4.93
2023-05-10T01:55:22.556Z,3.85
2023-05-10T01:59:09.852Z,4.85
2023-05-10T02:02:52.972Z,4.05
2023-05-10T02:06:36.117Z,3.92
2023-05-10T02:10:19.239Z,4.53
2023-05-10T02:14:02.368Z,3.65
2023-05-10T02:17:46.509Z,3.45
2023-05-10T02:21:30.568Z,4.25
2023-05-10T02:25:14.332Z,3.30
2023-05-10T02:28:57.207Z,3.88
2023-05-10T02:32:39.846Z,3.97
2023-05-10T02:36:23.874Z,4.80
2023-05-10T02:40:07.179Z,3.70
2023-05-10T02:43:53.976Z,4.90
2023-05-10T02:47:36.009Z,5.28
2023-05-10T02:51:20.849Z,5.15
2023-05-10T02:55:06.314Z,5.65
2023-05-10T02:58:48.294Z,7.80
2023-05-10T03:02:31.542Z,5.53
2023-05-10T03:06:13.528Z,5.65
2023-05-10T03:09:55.561Z,5.65
2023-05-10T03:13:50.023Z,6.18
2023-05-10T03:17:37.744Z,6.53
2023-05-10T03:21:21.586Z,7.57
2023-05-10T03:25:07.071Z,6.63
2023-05-10T03:28:50.650Z,6.15
2023-05-10T03:32:35.395Z,5.82
2023-05-10T03:36:17.457Z,6.60
2023-05-10T03:39:59.267Z,5.97
2023-05-10T03:43:42.191Z,8.05
2023-05-10T03:47:24.182Z,7.30
2023-05-10T03:51:06.094Z,9.15
2023-05-10T03:54:47.887Z,8.70
2023-05-10T03:58:29.793Z,8.95
2023-05-10T04:02:11.689Z,9.13
2023-05-10T04:06:03.514Z,8.45
2023-05-10T04:09:45.466Z,8.25
2023-05-10T04:13:27.733Z,9.52
2023-05-10T04:17:09.639Z,7.15
2023-05-10T04:20:51.683Z,8.18
2023-05-10T04:24:33.473Z,8.52
2023-05-10T04:28:15.433Z,8.60
2023-05-10T04:31:57.654Z,8.98
2023-05-10T04:35:41.050Z,9.82
2023-05-10T04:39:22.902Z,10.65
2023-05-10T04:43:04.741Z,10.18
2023-05-10T04:46:47.272Z,10.95
2023-05-10T04:50:29.231Z,11.10
2023-05-10T04:54:11.330Z,11.95
2023-05-10T04:57:53.461Z,10.10
2023-05-10T05:01:35.565Z,9.45
2023-05-10T05:05:17.428Z,8.90
2023-05-10T05:08:59.217Z,8.73
2023-05-10T05:12:41.112Z,10.40
2023-05-10T05:16:22.976Z,8.63
2023-05-10T05:20:05.579Z,8.05
2023-05-10T05:23:47.651Z,8.65
2023-05-10T05:27:29.488Z,8.40
2023-05-10T05:31:11.431Z,8.05
2023-05-10T05:34:53.406Z,8.73
2023-05-10T05:38:35.256Z,7.50
2023-05-10T05:42:18.705Z,7.10
2023-05-10T05:46:00.747Z,6.47
2023-05-10T05:49:42.607Z,5.72
2023-05-10T05:53:24.932Z,7.47
2023-05-10T05:57:06.947Z,6.15
2023-05-10T06:00:49.043Z,5.40
2023-05-10T06:04:30.974Z,4.68
2023-05-10T06:08:12.890Z,4.47
2023-05-10T06:11:54.699Z,4.88
2023-05-10T06:15:36.535Z,4.15
2023-05-10T06:19:18.445Z,4.22
2023-05-10T06:23:00.486Z,4.72
2023-05-10T06:26:42.291Z,4.47
2023-05-10T06:30:28.330Z,3.45
2023-05-10T06:34:10.283Z,4.37
2023-05-10T06:37:52.486Z,4.03
2023-05-10T06:41:34.361Z,4.07
2023-05-10T06:45:16.684Z,4.38
2023-05-10T06:48:58.899Z,4.63
2023-05-10T06:52:40.787Z,4.07
2023-05-10T06:56:22.758Z,3.58
2023-05-10T07:00:05.850Z,3.83
2023-05-10T07:03:47.849Z,4.25
2023-05-10T07:07:29.893Z,3.97
2023-05-10T07:11:11.787Z,3.25
2023-05-10T07:14:53.580Z,3.45
2023-05-10T07:18:35.470Z,2.92
2023-05-10T07:22:17.934Z,3.05
2023-05-10T07:26:00.428Z,3.00
2023-05-10T07:29:42.252Z,4.45
2023-05-10T07:33:24.079Z,3.08
2023-05-10T07:37:07.213Z,3.55
2023-05-10T07:40:49.024Z,3.40
2023-05-10T07:44:30.923Z,2.72
2023-05-10T07:48:12.853Z,2.38
2023-05-10T07:51:54.677Z,2.85
2023-05-10T07:55:36.492Z,3.03
2023-05-10T07:59:18.956Z,2.97
2023-05-10T08:03:01.122Z,3.47
2023-05-10T08:06:43.286Z,2.95
2023-05-10T08:10:25.719Z,2.50
2023-05-10T08:14:07.528Z,3.47
2023-05-10T08:17:49.398Z,2.75
2023-05-10T08:21:32.289Z,3.03
2023-05-10T08:25:14.150Z,2.33
2023-05-10T08:28:55.976Z,3.53
2023-05-10T08:32:39.254Z,4.00
2023-05-10T08:36:22.815Z,4.30
2023-05-10T08:40:05.204Z,5.40
2023-05-10T08:43:47.374Z,3.83
2023-05-10T08:47:30.193Z,3.63
2023-05-10T08:51:16.041Z,3.67
2023-05-10T08:54:58.230Z,3.30
2023-05-10T08:58:40.255Z,4.07
2023-05-10T09:02:23.335Z,3.40
2023-05-10T09:06:06.060Z,3.67
2023-05-10T09:09:48.267Z,3.20
2023-05-10T09:13:30.932Z,4.50
2023-05-10T09:17:13.241Z,3.25
2023-05-10T09:20:55.733Z,4.03
2023-05-10T09:24:43.353Z,3.25
2023-05-10T09:28:25.162Z,3.67
2023-05-10T09:32:07.101Z,3.22
2023-05-10T09:35:53.214Z,2.33
2023-05-10T09:39:37.031Z,3.00
2023-05-10T09:43:18.835Z,2.90
2023-05-10T09:47:04.428Z,4.63
2023-05-10T09:50:46.233Z,2.22
2023-05-10T09:54:28.132Z,2.58
2023-05-10T09:58:13.175Z,3.15
2023-05-10T10:01:58.956Z,2.75
2023-05-10T10:05:46.521Z,2.67
2023-05-10T10:09:29.049Z,2.00
2023-05-10T10:13:10.969Z,2.88
2023-05-10T10:17:06.682Z,2.25
2023-05-10T10:20:49.122Z,1.70
2023-05-10T10:24:31.164Z,2.35
2023-05-10T10:29:00.524Z,2.28
2023-05-10T10:33:10.180Z,2.17
2023-05-10T10:40:41.277Z,2.15
2023-05-10T10:44:26.187Z,2.20
2023-05-10T10:48:24.644Z,2.28
2023-05-10T10:52:30.909Z,2.47
2023-05-10T10:56:16.201Z,1.63
2023-05-10T11:00:21.358Z,1.50
2023-05-10T11:04:06.341Z,2.15
2023-05-10T11:07:58.950Z,1.60
2023-05-10T11:12:01.264Z,2.40
2023-05-10T11:15:53.181Z,1.50
2023-05-10T11:19:35.004Z,1.30
2023-05-10T11:23:18.723Z,1.67
2023-05-10T11:27:01.896Z,1.70
2023-05-10T11:30:45.438Z,1.70
2023-05-10T11:34:30.598Z,1.88
2023-05-10T11:38:13.855Z,1.37
2023-05-10T11:41:56.674Z,1.98
2023-05-10T11:45:39.082Z,1.85
2023-05-10T11:49:24.057Z,1.55
2023-05-10T11:53:06.361Z,1.80
2023-05-10T11:56:48.212Z,1.35
2023-05-10T12:00:30.790Z,1.75
2023-05-10T12:04:13.199Z,1.63
2023-05-10T12:08:15.420Z,1.63
2023-05-10T12:11:58.095Z,1.40
2023-05-10T12:15:40.025Z,1.35
2023-05-10T12:19:22.464Z,1.52
2023-05-10T12:23:04.816Z,2.15
2023-05-10T12:26:47.073Z,1.40
2023-05-10T12:30:31.026Z,1.27
2023-05-10T12:34:23.310Z,0.98
2023-05-10T12:38:27.981Z,0.90
2023-05-10T12:42:10.838Z,0.90
2023-05-10T12:45:52.777Z,0.88
2023-05-10T12:49:35.186Z,0.77
2023-05-10T12:53:17.739Z,0.50
2023-05-10T12:56:59.557Z,0.82
2023-05-10T13:00:41.572Z,1.05
2023-05-10T13:04:23.404Z,0.57
2023-05-10T13:08:05.831Z,0.73
2023-05-10T13:11:49.059Z,0.95
2023-05-10T13:15:30.953Z,1.30
2023-05-10T13:19:13.681Z,0.70
2023-05-10T13:22:55.646Z,0.70
2023-05-10T13:26:38.097Z,0.90
2023-05-10T13:30:19.994Z,0.60
2023-05-10T13:34:02.057Z,0.40
2023-05-10T13:37:43.933Z,0.60
2023-05-10T13:41:31.616Z,0.47
2023-05-10T13:45:14.209Z,0.50
2023-05-10T13:48:56.186Z,0.57
2023-05-10T13:52:38.377Z,0.50
2023-05-10T13:56:20.183Z,0.85
2023-05-10T14:00:02.076Z,0.20
2023-05-10T14:03:44.198Z,0.50
2023-05-10T14:07:26.059Z,0.52
2023-05-10T14:11:08.473Z,0.60
2023-05-10T14:14:50.402Z,0.50
2023-05-10T14:18:32.248Z,0.32
2023-05-10T14:22:14.162Z,0.60
2023-05-10T14:25:56.235Z,0.40
2023-05-10T14:29:38.312Z,0.38
2023-05-10T14:33:20.389Z,0.28
2023-05-10T14:37:02.395Z,0.30
2023-05-10T14:40:44.192Z,0.28
2023-05-10T14:44:26.087Z,0.25
2023-05-10T14:48:12.124Z,0.70
2023-05-10T14:51:54.098Z,0.50
2023-05-10T14:55:36.251Z,0.20
2023-05-10T14:59:18.099Z,0.45
2023-05-10T15:03:00.675Z,0.90
2023-05-10T15:06:43.009Z,0.45
2023-05-10T15:10:24.856Z,0.77
2023-05-10T15:14:07.094Z,0.60
2023-05-10T15:17:49.470Z,0.80
2023-05-10T15:21:36.161Z,0.77
2023-05-10T15:25:18.452Z,0.50
2023-05-10T15:29:00.638Z,0.50
2023-05-10T15:32:43.839Z,0.50
2023-05-10T15:36:26.064Z,0.63
2023-05-10T15:40:08.276Z,0.57
2023-05-10T15:43:50.103Z,0.40
2023-05-10T15:47:32.281Z,0.35
2023-05-10T15:51:14.186Z,0.57
2023-05-10T15:54:56.036Z,0.60
2023-05-10T15:58:39.238Z,0.52
2023-05-10T16:02:22.579Z,0.50
2023-05-10T16:06:05.143Z,0.30
2023-05-10T16:09:46.996Z,0.40
2023-05-10T16:13:29.883Z,0.77
2023-05-10T16:17:12.346Z,0.40
2023-05-10T16:20:55.239Z,0.70
2023-05-10T16:24:37.849Z,0.70
2023-05-10T16:28:23.123Z,0.75
2023-05-10T16:32:06.093Z,0.70
2023-05-10T16:35:48.826Z,0.30
2023-05-10T16:39:31.983Z,0.68
2023-05-10T16:43:17.119Z,0.70
2023-05-10T16:47:03.645Z,0.65
2023-05-10T16:50:48.373Z,0.75
2023-05-10T16:54:31.874Z,0.68
2023-05-10T16:58:15.035Z,0.50
2023-05-10T17:01:57.993Z,0.40
2023-05-10T17:05:41.290Z,0.50
2023-05-10T17:09:23.765Z,0.65
2023-05-10T17:13:08.014Z,0.70
2023-05-10T17:16:54.512Z,0.70
2023-05-10T17:20:37.266Z,0.80
2023-05-10T17:24:19.787Z,0.40
2023-05-10T17:28:02.478Z,0.40
2023-05-10T17:31:46.862Z,0.40
2023-05-10T17:35:31.671Z,0.68
2023-05-10T17:39:14.411Z,0.60
2023-05-10T17:42:57.461Z,0.55
2023-05-10T17:46:40.450Z,1.20
2023-05-10T17:50:23.214Z,0.70
2023-05-10T17:54:06.049Z,0.90
2023-05-10T17:57:49.885Z,0.80
2023-05-10T18:01:34.035Z,1.13
2023-05-10T18:05:17.239Z,0.98
2023-05-10T18:09:00.268Z,5.63
2023-05-10T18:12:42.707Z,0.95
2023-05-10T18:16:25.034Z,2.35
2023-05-10T18:20:08.473Z,1.77
2023-05-10T18:23:51.000Z,5.70
2023-05-10T18:27:33.802Z,1.38
2023-05-10T18:31:16.503Z,1.95
2023-05-10T18:34:58.632Z,8.95
2023-05-10T18:38:41.873Z,1.10
2023-05-10T18:42:24.585Z,1.45
2023-05-10T18:46:07.171Z,3.97
2023-05-10T18:49:49.695Z,2.92
2023-05-10T18:53:35.870Z,2.10
2023-05-10T18:57:18.611Z,11.10
2023-05-10T19:01:01.260Z,5.47
2023-05-10T19:04:43.938Z,12.05
2023-05-10T19:08:26.594Z,3.00
2023-05-10T19:12:09.403Z,8.35
2023-05-10T19:16:23.237Z,4.45
2023-05-10T19:20:10.370Z,5.32
2023-05-10T19:27:36.554Z,2.97
2023-05-10T19:31:19.757Z,3.13
2023-05-10T19:35:02.495Z,3.22
2023-05-10T19:38:45.088Z,2.88
2023-05-10T19:42:27.596Z,2.05
2023-05-10T19:46:10.397Z,1.85
2023-05-10T19:49:54.701Z,1.83
2023-05-10T19:53:37.505Z,2.13
2023-05-10T19:57:24.065Z,2.10
2023-05-10T20:01:12.878Z,2.42
2023-05-10T20:04:55.606Z,1.98
2023-05-10T20:08:39.197Z,2.05
2023-05-10T20:12:22.053Z,2.50
2023-05-10T20:16:06.543Z,2.20
2023-05-10T20:19:49.278Z,2.10
2023-05-10T20:23:32.114Z,2.53
2023-05-10T20:27:14.884Z,2.17
2023-05-10T20:30:58.400Z,2.88
2023-05-10T20:34:45.395Z,2.70
2023-05-10T20:42:11.166Z,2.88
2023-05-10T20:45:54.411Z,3.53
2023-05-10T20:49:38.381Z,2.38
2023-05-10T20:53:21.009Z,2.55
2023-05-10T20:57:03.602Z,2.10
2023-05-10T21:00:46.188Z,2.67
2023-05-10T21:04:28.947Z,2.88
2023-05-10T21:08:11.619Z,2.70
2023-05-10T21:11:54.222Z,2.75
2023-05-10T21:15:36.908Z,2.28
2023-05-10T21:19:19.953Z,2.58
2023-05-10T21:23:02.659Z,2.38
2023-05-10T21:26:45.084Z,2.83
2023-05-10T21:30:27.551Z,2.42
2023-05-10T21:34:09.730Z,2.72
2023-05-10T21:37:51.585Z,2.75
2023-05-10T21:41:33.508Z,2.85
2023-05-10T21:45:17.137Z,2.10
2023-05-10T21:48:58.948Z,2.50
2023-05-10T21:52:40.876Z,2.38
2023-05-10T21:56:23.109Z,2.88
2023-05-10T22:00:06.965Z,2.60
2023-05-10T22:03:48.845Z,3.83
2023-05-10T22:07:31.915Z,2.85
2023-05-10T22:11:13.744Z,2.92
2023-05-10T22:15:09.391Z,3.17
2023-05-10T22:18:54.214Z,3.13
2023-05-10T22:22:36.783Z,3.10
2023-05-10T22:26:18.675Z,3.67
2023-05-10T22:30:00.460Z,2.97
2023-05-10T22:33:42.375Z,2.67
2023-05-10T22:37:24.231Z,2.90
2023-05-10T22:41:06.639Z,2.10
2023-05-10T22:44:48.423Z,3.45
2023-05-10T22:48:30.333Z,2.42
2023-05-10T22:52:12.159Z,2.95
2023-05-10T22:55:54.061Z,3.30
2023-05-10T22:59:35.897Z,2.50
2023-05-10T23:03:18.156Z,3.08
2023-05-10T23:07:00.017Z,2.55
2023-05-10T23:10:42.062Z,2.85
2023-05-10T23:14:24.022Z,2.30
2023-05-10T23:18:06.243Z,2.60
2023-05-10T23:21:48.030Z,2.78
2023-05-10T23:25:29.887Z,2.25
2023-05-10T23:29:12.025Z,2.20
2023-05-10T23:32:53.890Z,2.60
2023-05-10T23:36:35.682Z,2.25
2023-05-10T23:40:17.823Z,3.15
2023-05-10T23:44:00.269Z,2.47
2023-05-10T23:47:42.164Z,2.38
2023-05-10T23:51:24.107Z,3.83
2023-05-10T23:55:06.369Z,1.90
2023-05-10T23:58:48.154Z,2.20
